createdAt,value
2019-06-07T00:00:40.128Z,2.80
2019-06-07T00:03:03.246Z,2.63
2019-06-07T00:05:30.991Z,2.23
2019-06-07T00:08:07.826Z,2.30
2019-06-07T00:10:36.563Z,2.53
2019-06-07T00:12:58.095Z,2.23
2019-06-07T00:15:29.084Z,2.83
2019-06-07T00:17:55.941Z,2.50
2019-06-07T00:20:23.962Z,3.10
2019-06-07T00:22:52.606Z,2.80
2019-06-07T00:25:24.308Z,3.10
2019-06-07T00:27:49.917Z,2.97
2019-06-07T00:30:40.081Z,2.87
2019-06-07T00:32:47.859Z,3.10
2019-06-07T00:35:20.272Z,3.60
2019-06-07T00:37:45.938Z,3.03
2019-06-07T00:40:20.896Z,3.53
2019-06-07T00:42:44.830Z,3.23
2019-06-07T00:45:17.846Z,2.93
2019-06-07T00:47:42.609Z,3.13
2019-06-07T00:50:11.124Z,3.07
2019-06-07T00:53:13.417Z,2.87
2019-06-07T00:55:09.361Z,3.23
2019-06-07T00:57:37.321Z,2.93
2019-06-07T01:00:07.268Z,2.80
2019-06-07T01:02:35.038Z,2.93
2019-06-07T01:05:04.463Z,2.90
2019-06-07T01:07:32.073Z,3.23
2019-06-07T01:09:59.885Z,2.83
2019-06-07T01:12:27.733Z,2.90
2019-06-07T01:14:55.570Z,2.80
2019-06-07T01:17:40.081Z,2.50
2019-06-07T01:19:54.942Z,3.00
2019-06-07T01:22:28.402Z,2.73
2019-06-07T01:24:52.354Z,2.60
2019-06-07T01:27:22.598Z,3.27
2019-06-07T01:29:49.243Z,3.30
2019-06-07T01:32:18.785Z,3.27
2019-06-07T01:34:46.529Z,3.17
2019-06-07T01:37:16.721Z,3.60
2019-06-07T01:39:44.388Z,2.70
2019-06-07T01:42:11.953Z,3.07
2019-06-07T01:44:39.479Z,3.00
2019-06-07T01:47:07.224Z,3.67
2019-06-07T01:49:34.617Z,3.50
2019-06-07T01:52:02.382Z,3.50
2019-06-07T01:56:59.554Z,2.83
2019-06-07T01:59:28.451Z,3.07
2019-06-07T02:01:56.941Z,3.53
2019-06-07T02:04:27.327Z,3.00
2019-06-07T02:06:54.131Z,2.77
2019-06-07T02:09:23.498Z,2.57
2019-06-07T02:11:51.483Z,3.30
2019-06-07T02:14:19.557Z,2.77
2019-06-07T02:16:47.502Z,2.77
2019-06-07T02:19:15.014Z,3.50
2019-06-07T02:21:42.786Z,3.40
2019-06-07T02:24:10.191Z,3.00
2019-06-07T02:26:38.081Z,3.47
2019-06-07T02:29:05.607Z,2.40
2019-06-07T02:31:39.318Z,2.67
2019-06-07T02:34:02.543Z,3.60
2019-06-07T02:36:36.574Z,2.87
2019-06-07T02:38:59.873Z,3.57
2019-06-07T02:41:35.229Z,3.17
2019-06-07T02:43:58.486Z,3.00
2019-06-07T02:46:35.345Z,4.10
2019-06-07T02:48:56.017Z,3.57
2019-06-07T02:51:27.334Z,3.33
2019-06-07T02:53:53.857Z,3.20
2019-06-07T02:56:41.876Z,3.13
2019-06-07T02:58:51.115Z,3.00
2019-06-07T03:01:18.768Z,3.37
2019-06-07T03:03:46.389Z,2.97
2019-06-07T03:06:14.386Z,2.90
2019-06-07T03:08:44.865Z,2.67
2019-06-07T03:11:14.049Z,2.57
2019-06-07T03:13:44.602Z,3.73
2019-06-07T03:16:16.658Z,2.53
2019-06-07T03:18:53.617Z,3.50
2019-06-07T03:21:23.025Z,2.90
2019-06-07T03:23:53.275Z,3.47
2019-06-07T03:26:23.077Z,3.10
2019-06-07T03:28:50.673Z,2.90
2019-06-07T03:31:18.201Z,3.60
2019-06-07T03:33:46.325Z,3.00
2019-06-07T03:36:23.707Z,2.53
2019-06-07T03:38:43.575Z,3.17
2019-06-07T03:41:11.073Z,3.13
2019-06-07T03:43:40.745Z,2.90
2019-06-07T03:46:08.578Z,2.70
2019-06-07T03:48:39.562Z,3.00
2019-06-07T03:51:23.611Z,3.43
2019-06-07T03:53:37.328Z,3.00
2019-06-07T03:56:05.688Z,2.73
2019-06-07T03:58:41.158Z,2.87
2019-06-07T04:01:02.745Z,2.70
2019-06-07T04:03:37.248Z,3.17
2019-06-07T04:06:00.072Z,2.90
2019-06-07T04:08:28.304Z,3.03
2019-06-07T04:11:00.254Z,2.57
2019-06-07T04:13:25.903Z,2.50
2019-06-07T04:15:53.367Z,2.80
2019-06-07T04:18:21.345Z,2.93
2019-06-07T04:20:49.593Z,3.03
2019-06-07T04:23:27.731Z,2.50
2019-06-07T04:25:47.274Z,2.90
2019-06-07T04:28:15.257Z,3.13
2019-06-07T04:30:43.615Z,3.40
2019-06-07T04:33:12.993Z,2.83
2019-06-07T04:35:42.880Z,3.10
2019-06-07T04:38:11.289Z,2.80
2019-06-07T04:40:42.543Z,3.10
2019-06-07T04:43:10.194Z,3.60
2019-06-07T04:45:46.141Z,3.70
2019-06-07T04:48:08.017Z,4.40
2019-06-07T04:50:40.017Z,5.30
2019-06-07T04:53:05.876Z,5.53
2019-06-07T04:55:34.038Z,4.90
2019-06-07T04:58:03.763Z,5.70
2019-06-07T05:00:55.579Z,5.50
2019-06-07T05:03:03.585Z,6.77
2019-06-07T05:05:32.013Z,5.90
2019-06-07T05:08:07.204Z,5.23
2019-06-07T05:10:30.613Z,4.60
2019-06-07T05:12:58.873Z,4.87
2019-06-07T05:15:26.551Z,4.33
2019-06-07T05:17:54.050Z,5.07
2019-06-07T05:20:21.847Z,4.50
2019-06-07T05:22:49.645Z,5.13
2019-06-07T05:25:17.034Z,6.77
2019-06-07T05:27:46.951Z,7.90
2019-06-07T05:31:01.941Z,10.30
2019-06-07T05:32:59.229Z,9.00
2019-06-07T05:35:27.402Z,7.53
2019-06-07T05:37:54.947Z,9.20
2019-06-07T05:40:32.956Z,9.40
2019-06-07T05:43:02.692Z,9.10
2019-06-07T05:45:32.563Z,9.43
2019-06-07T05:48:02.722Z,8.60
2019-06-07T05:50:42.597Z,9.97
2019-06-07T05:53:00.191Z,8.27
2019-06-07T05:55:27.830Z,9.60
2019-06-07T05:57:55.835Z,9.63
2019-06-07T06:00:25.285Z,10.53
2019-06-07T06:03:04.859Z,9.23
2019-06-07T06:05:34.570Z,9.40
2019-06-07T06:07:54.158Z,10.23
2019-06-07T06:10:22.095Z,9.90
2019-06-07T06:12:51.699Z,8.60
2019-06-07T06:15:33.028Z,9.43
2019-06-07T06:17:53.684Z,8.50
2019-06-07T06:20:19.424Z,7.80
2019-06-07T06:22:48.711Z,7.13
2019-06-07T06:25:31.434Z,7.07
2019-06-07T06:30:16.571Z,8.63
2019-06-07T06:32:53.002Z,8.10
2019-06-07T06:35:14.399Z,8.03
2019-06-07T06:37:46.215Z,8.53
2019-06-07T06:40:13.645Z,8.70
2019-06-07T06:42:42.230Z,8.30
2019-06-07T06:45:10.842Z,9.40
2019-06-07T06:47:38.638Z,7.97
2019-06-07T06:50:07.247Z,8.23
2019-06-07T06:52:35.466Z,9.47
2019-06-07T06:55:04.156Z,9.90
2019-06-07T06:57:31.557Z,8.47
2019-06-07T06:59:59.037Z,7.80
2019-06-07T07:02:26.543Z,9.63
2019-06-07T07:04:54.206Z,8.23
2019-06-07T07:07:22.791Z,8.30
2019-06-07T07:09:54.954Z,8.33
2019-06-07T07:12:20.227Z,8.87
2019-06-07T07:14:49.648Z,9.70
2019-06-07T07:17:17.399Z,8.70
2019-06-07T07:19:48.472Z,10.33
2019-06-07T07:22:15.685Z,10.37
2019-06-07T07:24:44.449Z,10.87
2019-06-07T07:27:12.226Z,9.40
2019-06-07T07:29:39.719Z,9.30
2019-06-07T07:32:07.668Z,8.53
2019-06-07T07:34:37.158Z,9.00
2019-06-07T07:37:04.938Z,9.53
2019-06-07T07:39:32.619Z,9.60
2019-06-07T07:42:18.043Z,8.87
2019-06-07T07:44:29.895Z,8.60
2019-06-07T07:46:57.415Z,8.90
2019-06-07T07:49:25.250Z,9.40
2019-06-07T07:51:56.509Z,8.87
2019-06-07T07:54:22.561Z,9.20
2019-06-07T07:56:51.714Z,9.10
2019-06-07T07:59:19.733Z,10.00
2019-06-07T08:01:48.633Z,8.97
2019-06-07T08:04:17.370Z,9.37
2019-06-07T08:06:46.504Z,9.80
2019-06-07T08:09:14.555Z,8.70
2019-06-07T08:11:42.819Z,8.17
2019-06-07T08:14:10.459Z,8.20
2019-06-07T08:16:38.005Z,8.00
2019-06-07T08:19:05.776Z,8.33
2019-06-07T08:21:33.239Z,9.63
2019-06-07T08:24:04.641Z,7.30
2019-06-07T08:26:30.424Z,8.13
2019-06-07T08:29:02.332Z,8.30
2019-06-07T08:31:27.686Z,8.73
2019-06-07T08:33:58.059Z,8.30
2019-06-07T08:36:40.692Z,8.03
2019-06-07T08:38:59.826Z,8.13
2019-06-07T08:41:23.517Z,8.60
2019-06-07T08:43:53.220Z,9.10
2019-06-07T08:46:20.527Z,8.90
2019-06-07T08:48:48.108Z,8.67
2019-06-07T08:51:15.684Z,8.27
2019-06-07T08:53:43.315Z,9.10
2019-06-07T08:56:11.709Z,9.43
2019-06-07T08:58:39.488Z,9.33
2019-06-07T09:01:08.853Z,9.57
2019-06-07T09:03:36.402Z,8.70
2019-06-07T09:06:16.099Z,8.87
2019-06-07T09:08:33.644Z,7.80
2019-06-07T09:11:06.285Z,8.93
2019-06-07T09:13:31.057Z,8.27
2019-06-07T09:16:04.951Z,6.83
2019-06-07T09:18:42.196Z,7.20
2019-06-07T09:21:00.443Z,6.50
2019-06-07T09:23:27.075Z,7.40
2019-06-07T09:26:00.901Z,6.50
2019-06-07T09:28:24.724Z,7.90
2019-06-07T09:30:52.743Z,6.63
2019-06-07T09:33:20.714Z,6.90
2019-06-07T09:35:48.329Z,9.80
2019-06-07T09:38:24.849Z,9.40
2019-06-07T09:40:45.722Z,8.40
2019-06-07T09:45:43.294Z,8.70
2019-06-07T09:48:16.043Z,8.43
2019-06-07T09:50:41.573Z,8.80
2019-06-07T09:53:21.904Z,9.93
2019-06-07T09:55:39.982Z,9.13
2019-06-07T09:58:48.375Z,8.90
2019-06-07T10:00:41.420Z,9.40
2019-06-07T10:03:17.956Z,8.20
2019-06-07T10:05:36.041Z,8.70
2019-06-07T10:08:16.017Z,7.80
2019-06-07T10:13:01.730Z,8.93
2019-06-07T10:15:29.431Z,8.60
2019-06-07T10:17:56.959Z,10.43
2019-06-07T10:20:24.326Z,10.10
2019-06-07T10:22:51.752Z,11.23
2019-06-07T10:25:19.278Z,9.43
2019-06-07T10:27:46.919Z,10.90
2019-06-07T10:30:14.793Z,9.60
2019-06-07T10:32:42.677Z,9.70
2019-06-07T10:35:13.863Z,9.53
2019-06-07T10:37:40.494Z,9.60
2019-06-07T10:40:09.315Z,9.97
2019-06-07T10:42:37.208Z,9.80
2019-06-07T10:45:06.620Z,8.93
2019-06-07T10:47:34.794Z,10.10
2019-06-07T10:50:03.789Z,10.30
2019-06-07T10:52:31.453Z,9.70
2019-06-07T10:54:59.319Z,10.30
2019-06-07T10:57:27.188Z,9.13
2019-06-07T10:59:55.105Z,9.30
2019-06-07T11:02:22.609Z,9.23
2019-06-07T11:04:50.155Z,9.40
2019-06-07T11:07:17.758Z,9.30
2019-06-07T11:09:45.252Z,11.27
2019-06-07T11:12:15.160Z,8.80
2019-06-07T11:14:43.261Z,7.97
2019-06-07T11:17:11.377Z,8.87
2019-06-07T11:19:39.459Z,9.50
2019-06-07T11:22:08.002Z,9.43
2019-06-07T11:24:35.716Z,8.60
2019-06-07T11:27:03.326Z,7.60
2019-06-07T11:29:30.901Z,8.30
2019-06-07T11:32:00.125Z,9.13
2019-06-07T11:34:27.601Z,8.27
2019-06-07T11:36:55.194Z,7.97
2019-06-07T11:39:22.753Z,8.00
2019-06-07T11:41:50.558Z,9.10
2019-06-07T11:44:18.048Z,8.47
2019-06-07T11:46:46.689Z,9.03
2019-06-07T11:49:19.890Z,7.90
2019-06-07T11:51:43.621Z,8.00
2019-06-07T11:54:12.055Z,10.07
2019-06-07T11:56:39.818Z,8.20
2019-06-07T11:59:07.229Z,10.00
2019-06-07T12:01:37.274Z,8.83
2019-06-07T12:04:04.584Z,8.70
2019-06-07T12:06:32.415Z,8.10
2019-06-07T12:09:00.371Z,8.40
2019-06-07T12:11:27.832Z,8.50
2019-06-07T12:13:56.079Z,7.20
2019-06-07T12:16:23.667Z,6.57
2019-06-07T12:18:51.097Z,7.33
2019-06-07T12:21:19.911Z,8.20
2019-06-07T12:23:48.545Z,8.93
2019-06-07T12:26:16.567Z,7.13
2019-06-07T12:28:44.300Z,6.00
2019-06-07T12:31:12.825Z,6.87
2019-06-07T12:33:40.578Z,7.23
2019-06-07T12:36:08.148Z,6.63
2019-06-07T12:38:35.691Z,7.20
2019-06-07T12:41:03.186Z,7.07
2019-06-07T12:43:30.893Z,7.03
2019-06-07T12:45:58.588Z,6.80
2019-06-07T12:48:26.359Z,7.20
2019-06-07T12:50:54.001Z,6.80
2019-06-07T12:53:25.841Z,7.57
2019-06-07T12:55:50.880Z,9.13
2019-06-07T12:58:28.161Z,10.20
2019-06-07T13:00:48.496Z,10.67
2019-06-07T13:03:16.363Z,10.10
2019-06-07T13:05:43.849Z,9.80
2019-06-07T13:08:11.502Z,8.80
2019-06-07T13:10:39.072Z,8.50
2019-06-07T13:13:06.921Z,9.07
2019-06-07T13:15:34.405Z,8.83
2019-06-07T13:18:02.296Z,9.47
2019-06-07T13:20:29.903Z,7.87
2019-06-07T13:22:57.581Z,7.87
2019-06-07T13:25:41.098Z,8.00
2019-06-07T13:27:54.947Z,8.30
2019-06-07T13:30:23.455Z,8.30
2019-06-07T13:32:52.309Z,7.50
2019-06-07T13:35:20.481Z,7.40
2019-06-07T13:37:49.228Z,7.23
2019-06-07T13:40:19.253Z,6.90
2019-06-07T13:42:46.289Z,6.43
2019-06-07T13:45:14.028Z,8.20
2019-06-07T13:47:41.670Z,7.00
2019-06-07T13:50:10.980Z,7.47
2019-06-07T13:52:39.933Z,7.13
2019-06-07T13:55:08.639Z,6.47
2019-06-07T13:57:36.205Z,7.63
2019-06-07T14:00:10.260Z,7.17
2019-06-07T14:02:34.469Z,6.30
2019-06-07T14:05:02.019Z,7.80
2019-06-07T14:07:30.146Z,6.40
2019-06-07T14:09:58.687Z,6.03
2019-06-07T14:12:26.358Z,5.63
2019-06-07T14:14:55.148Z,7.03
2019-06-07T14:17:23.315Z,6.47
2019-06-07T14:19:51.190Z,6.20
2019-06-07T14:22:18.569Z,6.50
2019-06-07T14:24:46.530Z,6.50
2019-06-07T14:27:14.038Z,6.57
2019-06-07T14:29:41.605Z,5.60
2019-06-07T14:32:09.100Z,5.60
2019-06-07T14:34:36.602Z,4.83
2019-06-07T14:37:04.239Z,5.40
2019-06-07T14:39:33.397Z,5.73
2019-06-07T14:42:09.442Z,6.80
2019-06-07T14:44:31.662Z,6.40
2019-06-07T14:46:59.973Z,6.47
2019-06-07T14:49:28.467Z,7.10
2019-06-07T14:51:55.936Z,9.00
2019-06-07T14:54:24.588Z,7.60
2019-06-07T14:56:52.471Z,8.60
2019-06-07T14:59:20.323Z,7.47
2019-06-07T15:01:48.067Z,6.37
2019-06-07T15:04:15.481Z,6.50
2019-06-07T15:06:43.541Z,5.10
2019-06-07T15:09:11.040Z,5.90
2019-06-07T15:11:39.235Z,5.83
2019-06-07T15:14:09.189Z,4.83
2019-06-07T15:16:37.930Z,7.53
2019-06-07T15:19:05.842Z,6.40
2019-06-07T15:21:34.996Z,6.30
2019-06-07T15:24:02.796Z,6.00
2019-06-07T15:26:32.381Z,6.00
2019-06-07T15:28:59.947Z,4.63
2019-06-07T15:31:27.938Z,3.73
2019-06-07T15:33:55.931Z,4.10
2019-06-07T15:36:23.408Z,4.07
2019-06-07T15:38:51.524Z,4.40
2019-06-07T15:41:20.119Z,4.30
2019-06-07T15:43:49.889Z,3.73
2019-06-07T15:46:17.695Z,4.27
2019-06-07T15:48:45.204Z,3.60
2019-06-07T15:51:12.919Z,3.87
2019-06-07T15:53:44.176Z,3.10
2019-06-07T15:56:10.058Z,3.67
2019-06-07T15:58:37.473Z,2.30
2019-06-07T16:01:05.179Z,2.10
2019-06-07T16:03:33.770Z,5.10
2019-06-07T16:06:01.437Z,2.50
2019-06-07T16:08:28.879Z,2.17
2019-06-07T16:10:56.395Z,2.20
2019-06-07T16:13:23.962Z,2.20
2019-06-07T16:15:51.863Z,1.93
2019-06-07T16:18:19.668Z,2.57
2019-06-07T16:20:47.243Z,1.80
2019-06-07T16:23:14.864Z,1.80
2019-06-07T16:25:42.400Z,1.77
2019-06-07T16:28:10.027Z,1.43
2019-06-07T16:30:38.484Z,1.40
2019-06-07T16:33:06.276Z,1.70
2019-06-07T16:35:34.900Z,1.60
2019-06-07T16:38:02.735Z,1.60
2019-06-07T16:40:30.622Z,1.30
2019-06-07T16:43:13.300Z,1.10
2019-06-07T16:45:27.899Z,1.23
2019-06-07T16:47:55.449Z,2.20
2019-06-07T16:50:23.004Z,1.53
2019-06-07T16:52:50.962Z,0.97
2019-06-07T16:55:18.720Z,1.80
2019-06-07T16:57:46.613Z,1.40
2019-06-07T17:00:14.945Z,0.80
2019-06-07T17:02:42.463Z,1.33
2019-06-07T17:05:10.302Z,1.20
2019-06-07T17:07:38.308Z,0.77
2019-06-07T17:10:06.637Z,1.00
2019-06-07T17:12:34.447Z,1.00
2019-06-07T17:15:02.698Z,0.80
2019-06-07T17:17:30.827Z,1.00
2019-06-07T17:19:58.293Z,0.90
2019-06-07T17:22:25.840Z,1.23
2019-06-07T17:24:53.709Z,1.17
2019-06-07T17:27:21.236Z,0.80
2019-06-07T17:29:50.132Z,0.93
2019-06-07T17:32:17.861Z,0.90
2019-06-07T17:34:46.217Z,0.97
2019-06-07T17:37:14.118Z,0.87
2019-06-07T17:39:43.388Z,1.03
2019-06-07T17:42:11.618Z,1.83
2019-06-07T17:44:39.125Z,1.30
2019-06-07T17:47:06.629Z,0.80
2019-06-07T17:49:34.146Z,0.90
2019-06-07T17:52:01.745Z,0.90
2019-06-07T17:54:29.496Z,1.50
2019-06-07T17:56:57.174Z,1.00
2019-06-07T17:59:24.720Z,0.90
2019-06-07T18:02:13.300Z,0.90
2019-06-07T18:04:22.260Z,0.80
2019-06-07T18:06:51.479Z,0.80
2019-06-07T18:09:21.062Z,0.67
2019-06-07T18:11:49.909Z,1.30
2019-06-07T18:14:17.583Z,0.80
2019-06-07T18:16:46.328Z,0.97
2019-06-07T18:19:14.165Z,1.00
2019-06-07T18:21:41.721Z,0.90
2019-06-07T18:24:09.318Z,0.90
2019-06-07T18:26:36.904Z,1.00
2019-06-07T18:29:04.447Z,1.10
2019-06-07T18:31:32.146Z,0.83
2019-06-07T18:33:59.673Z,1.27
2019-06-07T18:36:27.083Z,1.50
2019-06-07T18:38:55.144Z,1.00
2019-06-07T18:41:22.749Z,1.60
2019-06-07T18:43:51.135Z,1.30
2019-06-07T18:46:18.982Z,1.07
2019-06-07T18:48:48.291Z,1.10
2019-06-07T18:51:16.075Z,0.83
2019-06-07T18:53:43.467Z,0.70
2019-06-07T18:56:10.991Z,0.90
2019-06-07T18:58:38.637Z,0.80
2019-06-07T19:01:06.122Z,0.90
2019-06-07T19:03:33.902Z,1.10
2019-06-07T19:06:01.455Z,0.80
2019-06-07T19:08:28.942Z,0.70
2019-06-07T19:10:56.901Z,1.13
2019-06-07T19:13:25.606Z,1.40
2019-06-07T19:15:53.401Z,1.30
2019-06-07T19:18:21.184Z,0.77
2019-06-07T19:20:50.517Z,0.90
2019-06-07T19:23:18.034Z,1.00
2019-06-07T19:25:45.440Z,0.80
2019-06-07T19:28:12.993Z,0.90
2019-06-07T19:30:41.193Z,0.97
2019-06-07T19:33:08.764Z,1.20
2019-06-07T19:35:36.736Z,1.20
2019-06-07T19:38:04.403Z,0.90
2019-06-07T19:40:31.741Z,1.30
2019-06-07T19:43:00.455Z,1.00
2019-06-07T19:45:31.288Z,1.30
2019-06-07T19:47:58.785Z,0.83
2019-06-07T19:50:26.331Z,1.00
2019-06-07T19:52:55.007Z,0.70
2019-06-07T19:55:22.643Z,1.00
2019-06-07T19:57:50.482Z,0.93
2019-06-07T20:00:18.209Z,1.17
2019-06-07T20:02:46.072Z,1.27
2019-06-07T20:05:14.885Z,0.90
2019-06-07T20:07:44.072Z,0.73
2019-06-07T20:10:12.444Z,1.00
2019-06-07T20:12:40.081Z,0.80
2019-06-07T20:15:27.279Z,0.90
2019-06-07T20:17:37.945Z,0.83
2019-06-07T20:20:05.849Z,1.27
2019-06-07T20:22:33.975Z,1.07
2019-06-07T20:25:03.050Z,1.03
2019-06-07T20:27:31.321Z,1.23
2019-06-07T20:30:00.145Z,0.80
2019-06-07T20:32:28.351Z,0.80
2019-06-07T20:34:57.353Z,0.83
2019-06-07T20:37:25.361Z,1.10
2019-06-07T20:39:52.977Z,1.33
2019-06-07T20:42:21.185Z,1.30
2019-06-07T20:44:49.002Z,1.37
2019-06-07T20:47:16.528Z,0.77
2019-06-07T20:49:44.189Z,1.47
2019-06-07T20:52:11.801Z,1.20
2019-06-07T20:54:39.358Z,1.00
2019-06-07T20:57:08.922Z,0.80
2019-06-07T20:59:36.654Z,0.90
2019-06-07T21:02:05.172Z,1.00
2019-06-07T21:04:32.923Z,1.00
2019-06-07T21:07:01.343Z,0.90
2019-06-07T21:09:29.321Z,0.87
2019-06-07T21:11:57.132Z,1.00
2019-06-07T21:14:25.122Z,0.80
2019-06-07T21:16:52.993Z,0.90
2019-06-07T21:19:20.562Z,1.10
2019-06-07T21:21:48.315Z,0.80
2019-06-07T21:24:15.898Z,1.17
2019-06-07T21:26:43.801Z,0.87
2019-06-07T21:29:12.087Z,1.20
2019-06-07T21:31:39.971Z,1.17
2019-06-07T21:34:10.622Z,1.50
2019-06-07T21:36:36.911Z,1.27
2019-06-07T21:39:06.126Z,1.20
2019-06-07T21:41:33.993Z,0.93
2019-06-07T21:44:02.398Z,1.07
2019-06-07T21:46:30.220Z,0.90
2019-06-07T21:48:57.765Z,0.70
2019-06-07T21:51:25.668Z,0.73
2019-06-07T21:53:53.371Z,1.13
2019-06-07T21:56:21.210Z,1.40
2019-06-07T21:58:48.609Z,0.90
2019-06-07T22:01:28.901Z,1.07
2019-06-07T22:03:56.873Z,1.10
2019-06-07T22:06:24.668Z,0.70
2019-06-07T22:08:52.213Z,1.13
2019-06-07T22:11:20.222Z,1.30
2019-06-07T22:13:48.112Z,1.30
2019-06-07T22:16:26.595Z,1.20
2019-06-07T22:18:45.435Z,1.00
2019-06-07T22:21:12.835Z,0.97
2019-06-07T22:23:43.652Z,0.80
2019-06-07T22:26:11.291Z,1.00
2019-06-07T22:28:38.941Z,1.20
2019-06-07T22:31:06.474Z,0.90
2019-06-07T22:33:34.086Z,1.10
2019-06-07T22:36:01.901Z,1.03
2019-06-07T22:38:29.409Z,0.80
2019-06-07T22:40:56.783Z,0.97
2019-06-07T22:43:24.328Z,0.73
2019-06-07T22:45:52.486Z,1.00
2019-06-07T22:48:20.090Z,0.90
2019-06-07T22:50:47.884Z,0.80
2019-06-07T22:53:15.568Z,0.70
2019-06-07T22:55:47.210Z,0.70
2019-06-07T22:58:15.967Z,0.97
2019-06-07T23:00:43.787Z,0.80
2019-06-07T23:03:12.648Z,1.50
2019-06-07T23:05:40.252Z,1.10
2019-06-07T23:08:09.078Z,1.50
2019-06-07T23:10:36.489Z,0.80
2019-06-07T23:13:04.025Z,1.10
2019-06-07T23:15:32.205Z,1.17
2019-06-07T23:18:00.034Z,0.90
2019-06-07T23:20:27.545Z,1.23
2019-06-07T23:22:55.154Z,0.80
2019-06-07T23:25:24.561Z,0.87
2019-06-07T23:27:52.113Z,0.93
2019-06-07T23:30:21.701Z,1.00
2019-06-07T23:32:49.324Z,0.83
2019-06-07T23:35:17.425Z,1.23
2019-06-07T23:37:45.394Z,1.07
2019-06-07T23:40:14.956Z,0.90
2019-06-07T23:42:43.526Z,0.83
2019-06-07T23:45:12.081Z,1.00
2019-06-07T23:47:41.108Z,1.13
2019-06-07T23:50:09.190Z,0.80
2019-06-07T23:52:37.028Z,1.20
2019-06-07T23:55:04.835Z,0.90
2019-06-07T23:57:32.326Z,0.90
2019-06-07T23:59:59.879Z,1.00
